Time;durP1;ratioP1;P1;durP2;ratioP2;P2;SDS_P1;SDS_P2;PMS_P1;PMS_P2;Temp;Humidity;BMP_temperature;BMP_pressure;BME280_temperature;BME280_humidity;BME280_pressure;Samples;Min_cycle;Max_cycle;Signal;HPM_P1;HPM_P2
2021/09/02 00:01:49;;;;;;;15.20;8.30;;;;;;;12.93;78.12;101852.33;1769972;79;21093;-84
2021/09/02 00:04:16;;;;;;;14.35;8.90;;;;;;;12.95;78.07;101852.34;1769389;79;21488;-80
2021/09/02 00:06:42;;;;;;;15.05;8.53;;;;;;;12.99;78.08;101855.59;1769165;81;23151;-81
2021/09/02 00:09:09;;;;;;;17.17;9.50;;;;;;;13.03;78.08;101854.41;1769303;79;21043;-81
2021/09/02 00:11:36;;;;;;;12.78;8.93;;;;;;;13.09;78.02;101856.78;1769461;79;21014;-82
2021/09/02 00:14:02;;;;;;;15.13;8.60;;;;;;;13.13;77.95;101863.52;1769819;80;21089;-87
2021/09/02 00:16:29;;;;;;;13.32;7.92;;;;;;;13.16;77.89;101872.00;1769907;79;21054;-83
2021/09/02 00:18:55;;;;;;;11.57;8.03;;;;;;;13.20;77.85;101864.64;1739686;81;21916;-88
2021/09/02 00:21:22;;;;;;;12.18;8.53;;;;;;;13.23;77.76;101864.31;1770102;80;20990;-88
2021/09/02 00:23:49;;;;;;;13.90;7.58;;;;;;;13.27;77.78;101870.59;1770021;81;21138;-86
2021/09/02 00:26:16;;;;;;;13.25;7.72;;;;;;;13.33;77.76;101864.64;1770070;80;21018;-86
2021/09/02 00:28:42;;;;;;;10.72;7.58;;;;;;;13.37;77.66;101866.09;1770296;81;21006;-88
2021/09/02 00:31:09;;;;;;;13.13;7.87;;;;;;;13.40;77.61;101866.20;1770115;81;21399;-86
2021/09/02 00:33:36;;;;;;;12.35;8.28;;;;;;;13.44;77.54;101862.30;1770121;81;21547;-86
2021/09/02 00:36:02;;;;;;;13.48;7.83;;;;;;;13.47;77.51;101859.33;1770114;81;21003;-86
2021/09/02 00:38:29;;;;;;;13.28;7.60;;;;;;;13.48;77.49;101854.53;1770073;81;21104;-85
2021/09/02 00:40:57;;;;;;;12.88;6.78;;;;;;;13.49;77.41;101854.98;1770200;81;21006;-85
2021/09/02 00:43:23;;;;;;;10.20;7.25;;;;;;;13.51;77.47;101857.68;1769625;79;21775;-81
2021/09/02 00:45:50;;;;;;;11.95;7.80;;;;;;;13.54;77.47;101849.85;1769714;79;21523;-84
2021/09/02 00:48:17;;;;;;;10.75;7.05;;;;;;;13.57;77.48;101853.49;1770302;79;21015;-85
2021/09/02 00:50:43;;;;;;;11.05;7.15;;;;;;;13.59;77.47;101857.08;1773304;80;21513;-84
2021/09/02 00:53:10;;;;;;;11.20;7.45;;;;;;;13.61;77.43;101852.73;1773530;80;21076;-85
2021/09/02 00:55:37;;;;;;;10.03;7.15;;;;;;;13.64;77.41;101851.02;1773521;80;21759;-84
2021/09/02 00:58:03;;;;;;;9.70;6.80;;;;;;;13.64;77.45;101847.94;1773538;80;20998;-85
2021/09/02 01:00:30;;;;;;;9.50;7.05;;;;;;;13.69;77.43;101853.39;1773502;80;21045;-84
2021/09/02 01:02:57;;;;;;;12.95;6.78;;;;;;;13.73;77.41;101849.55;1773423;80;21014;-85
2021/09/02 01:05:23;;;;;;;10.43;7.62;;;;;;;13.76;77.40;101847.00;1773555;80;21053;-86
2021/09/02 01:07:50;;;;;;;12.40;8.00;;;;;;;13.80;77.40;101844.91;1773635;80;21803;-86
2021/09/02 01:10:17;;;;;;;11.90;7.20;;;;;;;13.82;77.41;101849.36;1747015;80;21029;-83
2021/09/02 01:12:50;;;;;;;10.98;5.83;;;;;;;13.84;77.42;101847.66;1773004;79;21425;-82
2021/09/02 01:15:22;;;;;;;11.88;6.78;;;;;;;13.84;77.46;101848.55;1772993;79;21074;-83
2021/09/02 01:17:52;;;;;;;11.20;6.78;;;;;;;13.86;77.54;101841.98;1773002;80;20998;-83
2021/09/02 01:20:21;;;;;;;11.10;6.58;;;;;;;13.87;77.54;101839.78;1773167;80;22592;-86
2021/09/02 01:22:52;;;;;;;11.15;6.05;;;;;;;13.91;77.57;101845.66;1773243;80;21050;-86
2021/09/02 01:25:23;;;;;;;8.60;6.15;;;;;;;13.93;77.61;101839.55;1772787;80;21045;-83
2021/09/02 01:27:53;;;;;;;10.60;6.17;;;;;;;13.94;77.51;101837.79;1772640;80;22554;-86
2021/09/02 01:30:20;;;;;;;11.70;6.53;;;;;;;13.94;77.46;101840.44;1771949;80;21026;-86
2021/09/02 01:32:48;;;;;;;11.22;6.42;;;;;;;13.94;77.50;101841.76;1772741;80;21743;-87
2021/09/02 01:35:15;;;;;;;9.25;5.72;;;;;;;13.97;77.50;101843.18;1772449;80;21029;-86
2021/09/02 01:37:57;;;;;;;9.60;6.17;;;;;;;13.98;77.54;101839.27;1772785;80;21045;-86
2021/09/02 01:40:33;;;;;;;9.93;6.55;;;;;;;14.00;77.53;101845.49;1773017;80;21061;-84
2021/09/02 01:43:00;;;;;;;9.73;5.80;;;;;;;14.05;77.52;101839.42;1773271;80;21073;-85
2021/09/02 01:45:27;;;;;;;8.63;6.53;;;;;;;14.08;77.39;101836.44;1773142;80;22719;-85
2021/09/02 01:47:59;;;;;;;8.55;5.62;;;;;;;14.11;77.37;101835.62;1773163;80;21089;-86
2021/09/02 01:50:26;;;;;;;11.20;6.12;;;;;;;14.12;77.30;101834.78;1768767;79;21073;-84
2021/09/02 01:52:55;;;;;;;11.38;5.92;;;;;;;14.13;77.24;101834.83;1768895;79;21057;-84
2021/09/02 01:55:23;;;;;;;9.88;6.25;;;;;;;14.14;77.22;101836.60;1769138;81;21551;-82
2021/09/02 01:57:50;;;;;;;9.18;6.50;;;;;;;14.17;77.21;101834.05;1768858;81;22581;-82
2021/09/02 02:00:17;;;;;;;8.65;6.05;;;;;;;14.17;77.18;101828.75;1768674;78;21078;-82
2021/09/02 02:02:44;;;;;;;9.43;6.20;;;;;;;14.20;77.20;101826.61;1768897;81;21527;-83
2021/09/02 02:05:10;;;;;;;8.50;5.70;;;;;;;14.20;77.15;101827.93;1768993;79;21128;-82
2021/09/02 02:07:38;;;;;;;7.25;6.03;;;;;;;14.22;77.08;101820.03;1768967;81;21108;-86
2021/09/02 02:10:07;;;;;;;8.60;5.80;;;;;;;14.21;77.05;101817.82;1769229;81;22527;-86
2021/09/02 02:12:34;;;;;;;8.05;6.35;;;;;;;14.20;77.06;101824.84;1769224;80;21045;-86
2021/09/02 02:15:00;;;;;;;9.68;5.67;;;;;;;14.19;77.04;101821.74;1769410;81;21065;-85
2021/09/02 02:17:27;;;;;;;10.05;6.92;;;;;;;14.18;77.08;101818.61;1769333;81;21037;-86
2021/09/02 02:19:54;;;;;;;11.35;5.75;;;;;;;14.20;77.15;101819.55;1768945;81;21164;-82
2021/09/02 02:22:20;;;;;;;7.92;5.80;;;;;;;14.21;77.17;101820.47;1768680;80;22555;-82
2021/09/02 02:24:47;;;;;;;9.45;5.75;;;;;;;14.23;77.16;101816.52;1768750;79;21080;-83
2021/09/02 02:27:14;;;;;;;8.00;6.25;;;;;;;14.24;77.24;101815.67;1768965;79;21141;-83
2021/09/02 02:29:41;;;;;;;8.05;5.90;;;;;;;14.26;77.27;101819.25;1769007;79;21065;-83
2021/09/02 02:32:08;;;;;;;7.90;5.22;;;;;;;14.27;77.29;101818.41;1769067;81;21140;-83
2021/09/02 02:34:35;;;;;;;7.47;5.72;;;;;;;14.28;77.33;101820.19;1769148;79;21744;-83
2021/09/02 02:37:01;;;;;;;10.03;5.83;;;;;;;14.32;77.37;101822.06;1768877;78;21077;-83
2021/09/02 02:39:28;;;;;;;7.97;5.78;;;;;;;14.35;77.38;101820.83;1769013;79;21072;-83
2021/09/02 02:41:55;;;;;;;7.95;4.87;;;;;;;14.35;77.41;101814.20;1768934;81;21068;-83
2021/09/02 02:44:22;;;;;;;9.00;6.12;;;;;;;14.33;77.36;101818.56;1768521;78;36287;-82
2021/09/02 02:46:49;;;;;;;7.92;5.95;;;;;;;14.32;77.44;101819.41;1768926;79;21950;-83
2021/09/02 02:49:16;;;;;;;10.35;5.67;;;;;;;14.33;77.54;101818.13;1773672;79;21086;-83
2021/09/02 02:51:43;;;;;;;6.87;5.60;;;;;;;14.36;77.58;101826.61;1789173;80;21094;-87
2021/09/02 02:54:09;;;;;;;6.90;5.28;;;;;;;14.37;77.61;101820.44;1789586;80;21041;-87
2021/09/02 02:56:36;;;;;;;6.00;5.37;;;;;;;14.39;77.62;101822.26;1789510;78;21067;-86
2021/09/02 02:59:03;;;;;;;6.78;5.47;;;;;;;14.42;77.65;101819.25;1789380;78;21852;-86
2021/09/02 03:01:29;;;;;;;14.85;6.08;;;;;;;14.41;77.62;101814.80;1789326;78;21037;-86
2021/09/02 03:03:56;;;;;;;6.58;5.55;;;;;;;14.38;77.52;101811.22;1789636;80;21360;-85
2021/09/02 03:06:23;;;;;;;6.85;5.17;;;;;;;14.33;77.45;101817.25;1789279;79;21063;-85
2021/09/02 03:08:49;;;;;;;10.63;5.62;;;;;;;14.24;77.46;101810.38;1789396;78;21084;-84
2021/09/02 03:11:16;;;;;;;7.42;5.72;;;;;;;14.15;77.50;101809.28;1788914;78;21967;-84
2021/09/02 03:13:43;;;;;;;7.10;5.08;;;;;;;14.08;77.61;101813.05;1789226;80;21062;-82
2021/09/02 03:16:10;;;;;;;7.78;5.95;;;;;;;14.00;77.75;101815.45;1788901;78;21153;-81
2021/09/02 03:18:36;;;;;;;7.90;5.72;;;;;;;13.93;77.86;101805.58;1789001;80;21131;-82
2021/09/02 03:21:03;;;;;;;9.43;5.87;;;;;;;13.87;78.04;101809.34;1788778;80;21107;-82
2021/09/02 03:23:30;;;;;;;9.80;6.08;;;;;;;13.80;78.10;101808.29;1788849;78;21725;-82
2021/09/02 03:25:56;;;;;;;8.48;5.90;;;;;;;13.74;78.23;101810.34;1788739;78;21095;-82
2021/09/02 03:28:23;;;;;;;10.05;6.03;;;;;;;13.69;78.38;101811.95;1788829;78;21122;-81
2021/09/02 03:30:49;;;;;;;12.35;6.22;;;;;;;13.66;78.50;101814.48;1789132;79;21039;-83
2021/09/02 03:33:16;;;;;;;8.55;6.58;;;;;;;13.60;78.59;101815.20;1789143;78;21079;-83
2021/09/02 03:35:43;;;;;;;8.43;5.50;;;;;;;13.55;78.74;101822.53;1789165;80;21733;-83
2021/09/02 03:38:09;;;;;;;7.22;5.50;;;;;;;13.51;78.88;101829.91;1789438;80;21031;-88
2021/09/02 03:40:36;;;;;;;9.73;5.62;;;;;;;13.48;79.05;101829.84;1789460;78;21675;-88
2021/09/02 03:43:03;;;;;;;9.65;5.87;;;;;;;13.45;79.21;101828.41;1789568;79;21605;-88
2021/09/02 03:45:29;;;;;;;9.50;6.22;;;;;;;13.41;79.34;101830.95;1791085;79;21570;-86
2021/09/02 03:47:56;;;;;;;8.18;6.25;;;;;;;13.40;79.55;101830.89;1764224;81;21831;-86
2021/09/02 03:50:23;;;;;;;7.58;5.67;;;;;;;13.38;79.54;101828.23;1795363;79;21065;-84
2021/09/02 03:52:50;;;;;;;6.97;5.72;;;;;;;13.36;79.69;101832.58;1761544;81;21053;-84
2021/09/02 03:55:17;;;;;;;7.75;5.58;;;;;;;13.36;79.81;101835.23;1794064;78;21123;-85
2021/09/02 03:57:43;;;;;;;8.53;5.95;;;;;;;13.34;79.88;101830.28;1761302;80;21126;-85
2021/09/02 04:00:12;;;;;;;9.70;6.58;;;;;;;13.34;79.94;101830.72;1794300;79;21919;-85
2021/09/02 04:02:38;;;;;;;7.83;5.90;;;;;;;13.33;80.04;101843.48;1767610;80;21093;-89
2021/09/02 04:05:06;;;;;;;8.88;6.75;;;;;;;13.31;80.24;101836.81;1793503;80;21033;-88
2021/09/02 04:07:33;;;;;;;9.73;6.08;;;;;;;13.32;80.37;101848.28;1793370;80;21061;-87
2021/09/02 04:10:00;;;;;;;9.08;6.53;;;;;;;13.32;80.41;101850.50;1793546;80;21057;-89
2021/09/02 04:12:26;;;;;;;9.40;6.60;;;;;;;13.34;80.48;101845.26;1813857;79;21767;-84
2021/09/02 04:14:54;;;;;;;11.53;5.72;;;;;;;13.34;80.47;101847.91;1793573;78;20998;-82
2021/09/02 04:17:20;;;;;;;7.87;5.70;;;;;;;13.34;80.60;101850.55;1793487;80;21108;-80
2021/09/02 04:19:47;;;;;;;11.18;5.70;;;;;;;13.36;80.66;101856.38;1813057;77;21077;-80
2021/09/02 04:22:13;;;;;;;7.87;6.05;;;;;;;13.37;80.68;101855.52;1793442;80;21061;-80
2021/09/02 04:24:40;;;;;;;10.08;5.97;;;;;;;13.38;80.70;101859.05;1793444;80;21884;-81
2021/09/02 04:27:08;;;;;;;8.03;5.80;;;;;;;13.40;80.75;101861.31;1813111;78;21041;-84
2021/09/02 04:29:34;;;;;;;11.65;6.70;;;;;;;13.41;80.75;101860.47;1794000;80;21084;-86
2021/09/02 04:32:01;;;;;;;10.28;6.30;;;;;;;13.41;80.80;101862.69;1790831;80;21570;-85
2021/09/02 04:34:28;;;;;;;8.73;5.50;;;;;;;13.44;80.79;101864.95;1816927;79;21033;-86
2021/09/02 04:36:54;;;;;;;9.63;6.65;;;;;;;13.45;80.78;101865.00;1794813;80;21935;-89
2021/09/02 04:39:21;;;;;;;12.10;5.95;;;;;;;13.46;80.79;101861.92;1794500;79;21069;-86
2021/09/02 04:41:48;;;;;;;12.50;6.67;;;;;;;13.47;80.84;101866.38;1794516;79;21002;-86
2021/09/02 04:44:14;;;;;;;10.82;6.97;;;;;;;13.49;80.94;101862.92;1816889;78;21009;-86
2021/09/02 04:46:41;;;;;;;9.58;5.87;;;;;;;13.57;81.12;101860.51;1794499;80;21088;-86
2021/09/02 04:49:07;;;;;;;11.88;6.45;;;;;;;13.69;81.20;101859.56;1794088;79;21660;-83
2021/09/02 04:51:34;;;;;;;11.65;6.72;;;;;;;13.83;81.14;101861.29;1792206;78;21634;-85
2021/09/02 04:54:01;;;;;;;12.63;7.17;;;;;;;14.65;82.92;101862.27;1792665;80;21029;-82
2021/09/02 04:56:27;;;;;;;16.37;7.20;;;;;;;15.04;80.64;101847.80;1811304;78;21041;-84
2021/09/02 04:58:54;;;;;;;8.88;6.58;;;;;;;14.93;79.46;101854.59;1797082;78;21073;-83
2021/09/02 05:01:21;;;;;;;13.80;7.08;;;;;;;14.77;79.16;101857.27;1811448;78;21732;-83
2021/09/02 05:03:47;;;;;;;15.75;7.70;;;;;;;15.91;82.22;101864.80;1797106;79;21553;-83
2021/09/02 05:06:14;;;;;;;11.25;6.47;;;;;;;18.02;82.69;101854.15;1811267;78;21120;-84
2021/09/02 05:08:41;;;;;;;11.22;6.45;;;;;;;20.06;80.60;101852.64;1797312;79;21100;-84
2021/09/02 05:11:07;;;;;;;7.62;5.17;;;;;;;21.73;77.55;101846.42;1811321;77;21551;-85
2021/09/02 05:13:34;;;;;;;8.75;5.05;;;;;;;22.97;74.70;101849.25;1796277;78;21721;-84
2021/09/02 05:16:00;;;;;;;8.40;5.22;;;;;;;23.44;71.49;101848.83;1810447;78;22057;-84
2021/09/02 05:18:27;;;;;;;6.95;5.20;;;;;;;23.06;68.87;101850.08;1796402;78;21097;-83
2021/09/02 05:20:54;;;;;;;7.65;5.65;;;;;;;22.40;67.40;101853.27;1810405;78;21104;-84
2021/09/02 05:23:20;;;;;;;7.25;5.45;;;;;;;21.77;66.86;101854.89;1796312;79;21073;-83
2021/09/02 05:25:47;;;;;;;12.15;6.15;;;;;;;20.68;66.85;101867.95;1810414;78;21713;-83
2021/09/02 05:28:14;;;;;;;10.82;5.58;;;;;;;20.68;66.85;101867.95;1789584;79;21034;-83
2021/09/02 05:30:40;;;;;;;7.72;5.45;;;;;;;19.99;66.79;101852.62;1772773;79;21120;-82
2021/09/02 05:33:07;;;;;;;6.75;5.15;;;;;;;19.27;67.78;101849.98;1772044;80;21045;-82
2021/09/02 05:35:34;;;;;;;6.03;4.75;;;;;;;19.27;67.78;101849.98;1777820;79;21096;-82
2021/09/02 05:38:00;;;;;;;8.83;5.28;;;;;;;19.07;67.85;101872.10;1772127;80;21721;-82
2021/09/02 05:40:27;;;;;;;10.32;5.30;;;;;;;18.84;68.40;101874.55;1772458;80;21324;-84
2021/09/02 05:42:54;;;;;;;9.20;4.92;;;;;;;18.65;68.69;101875.68;1772494;80;21077;-82
2021/09/02 05:45:20;;;;;;;7.97;5.58;;;;;;;18.54;68.95;101879.13;1772079;80;21073;-82
2021/09/02 05:47:47;;;;;;;6.45;5.30;;;;;;;18.32;68.94;101885.58;1772096;80;21072;-82
2021/09/02 05:50:14;;;;;;;6.87;5.62;;;;;;;18.09;69.30;101881.30;1770202;80;21418;-82
2021/09/02 05:52:40;;;;;;;9.78;4.95;;;;;;;17.98;69.67;101889.59;1766950;81;21085;-84
2021/09/02 05:55:08;;;;;;;10.28;5.50;;;;;;;17.85;69.83;101888.57;1767009;81;21077;-84
2021/09/02 05:57:35;;;;;;;11.05;6.12;;;;;;;17.69;69.98;101889.63;1767163;81;21082;-85
2021/09/02 06:00:03;;;;;;;6.75;4.95;;;;;;;17.55;70.20;101888.98;1767555;81;21144;-84
2021/09/02 06:02:30;;;;;;;8.63;5.58;;;;;;;17.42;70.45;101902.57;1767428;81;21923;-84
2021/09/02 06:04:56;;;;;;;10.98;5.53;;;;;;;17.31;70.73;101908.16;1767730;81;21030;-84
2021/09/02 06:07:23;;;;;;;8.30;5.65;;;;;;;17.23;71.12;101910.26;1767580;81;21120;-84
2021/09/02 06:09:50;;;;;;;6.70;5.03;;;;;;;17.17;71.20;101913.24;1767493;81;21105;-84
2021/09/02 06:12:16;;;;;;;6.97;4.70;;;;;;;17.12;71.36;101910.52;1767533;81;21022;-84
2021/09/02 06:14:43;;;;;;;8.33;5.28;;;;;;;17.06;71.54;101921.03;1767321;81;21703;-82
2021/09/02 06:17:10;;;;;;;6.75;5.08;;;;;;;17.04;71.71;101905.48;1767179;81;21515;-82
2021/09/02 06:19:36;;;;;;;8.68;5.03;;;;;;;17.01;71.83;101904.13;1767257;81;21108;-82
2021/09/02 06:22:03;;;;;;;7.15;5.17;;;;;;;16.99;71.86;101924.48;1767245;81;21101;-81
2021/09/02 06:24:30;;;;;;;8.20;4.28;;;;;;;16.93;71.92;101919.03;1767158;81;21076;-82
2021/09/02 06:26:57;;;;;;;6.65;4.87;;;;;;;16.88;72.12;101907.89;1767372;81;21759;-81
2021/09/02 06:29:24;;;;;;;10.10;4.75;;;;;;;16.90;72.08;101910.14;1767189;81;21085;-83
2021/09/02 06:31:51;;;;;;;7.45;4.22;;;;;;;16.92;72.10;101910.61;1767373;81;21605;-84
2021/09/02 06:34:18;;;;;;;6.55;4.17;;;;;;;16.88;71.99;101919.86;1767546;81;21085;-81
2021/09/02 06:36:44;;;;;;;7.72;4.30;;;;;;;16.88;71.87;101919.86;1767171;81;21092;-82
2021/09/02 06:39:11;;;;;;;6.25;4.50;;;;;;;16.95;71.68;101926.60;1767254;81;21757;-82
2021/09/02 06:41:38;;;;;;;5.58;3.65;;;;;;;16.97;71.60;101923.53;1767266;81;21104;-82
2021/09/02 06:44:04;;;;;;;5.17;3.87;;;;;;;16.99;71.21;101920.50;1767221;81;21304;-81
2021/09/02 06:46:31;;;;;;;5.45;3.60;;;;;;;17.04;70.71;101933.00;1767314;81;21112;-82
2021/09/02 06:48:58;;;;;;;8.40;3.72;;;;;;;17.04;70.80;101914.39;1767325;81;21096;-82
2021/09/02 06:51:24;;;;;;;5.40;3.72;;;;;;;17.09;70.84;101917.99;1766712;81;22512;-80
2021/09/02 06:53:51;;;;;;;4.87;3.42;;;;;;;17.13;69.86;101922.05;1766806;81;21539;-80
2021/09/02 06:56:18;;;;;;;4.87;3.02;;;;;;;17.08;69.16;101904.25;1738843;81;21069;-80
2021/09/02 06:58:45;;;;;;;5.22;3.37;;;;;;;17.03;68.82;101915.69;1766831;81;21010;-80
2021/09/02 07:01:13;;;;;;;4.42;2.67;;;;;;;17.00;68.64;101917.84;1767007;79;21085;-80
2021/09/02 07:03:41;;;;;;;5.15;2.40;;;;;;;17.00;68.07;101932.91;1766794;81;21752;-80
2021/09/02 07:06:08;;;;;;;8.98;3.45;;;;;;;16.96;66.96;101916.00;1766666;80;21547;-80
2021/09/02 07:08:36;;;;;;;3.42;2.72;;;;;;;16.97;66.56;101928.85;1766847;81;21128;-80
2021/09/02 07:11:04;;;;;;;3.47;2.50;;;;;;;16.98;65.88;101932.88;1766837;81;21062;-80
2021/09/02 07:13:31;;;;;;;3.80;2.35;;;;;;;16.99;65.41;101936.02;1766755;81;21140;-83
2021/09/02 07:15:58;;;;;;;3.90;2.50;;;;;;;17.03;65.31;101928.98;1766964;81;21199;-83
2021/09/02 07:18:24;;;;;;;5.70;2.62;;;;;;;17.07;64.83;101946.34;1766774;81;21073;-83
2021/09/02 07:20:51;;;;;;;4.40;3.30;;;;;;;17.12;64.72;101949.51;1766906;81;21002;-80
2021/09/02 07:23:18;;;;;;;3.92;2.42;;;;;;;17.17;64.70;101947.39;1766897;80;21058;-80
2021/09/02 07:25:45;;;;;;;5.05;2.30;;;;;;;17.22;64.12;101953.69;1766980;79;21108;-81
2021/09/02 07:28:11;;;;;;;4.08;2.98;;;;;;;17.26;64.18;101944.88;1766758;79;21825;-81
2021/09/02 07:30:40;;;;;;;5.67;2.50;;;;;;;17.31;63.52;101958.28;1766934;81;21121;-81
2021/09/02 07:33:07;;;;;;;6.92;3.17;;;;;;;17.32;62.62;101964.05;1766813;81;21057;-81
2021/09/02 07:35:34;;;;;;;5.22;2.83;;;;;;;17.31;62.94;101974.69;1766818;80;21077;-81
2021/09/02 07:38:00;;;;;;;6.35;2.42;;;;;;;17.32;63.15;101968.48;1766900;81;21363;-81
2021/09/02 07:40:27;;;;;;;6.60;4.62;;;;;;;17.32;62.69;101969.81;1766826;80;21667;-81
2021/09/02 07:42:54;;;;;;;6.67;3.15;;;;;;;17.32;62.57;101973.80;1766887;81;21007;-81
2021/09/02 07:45:20;;;;;;;3.87;2.37;;;;;;;17.27;62.31;101979.95;1766947;79;21132;-81
2021/09/02 07:47:47;;;;;;;6.37;2.00;;;;;;;17.27;61.57;101981.73;1766964;80;21685;-81
2021/09/02 07:50:14;;;;;;;4.72;2.20;;;;;;;17.25;61.04;102000.77;1766848;81;21468;-80
2021/09/02 07:52:40;;;;;;;4.10;1.77;;;;;;;17.22;60.25;101992.72;1823665;78;21959;-80
2021/09/02 07:55:08;;;;;;;6.37;2.62;;;;;;;17.17;60.89;102011.69;1824050;78;21518;-81
2021/09/02 07:57:35;;;;;;;6.20;2.10;;;;;;;17.14;60.81;102011.20;1824157;78;21162;-81
2021/09/02 08:00:03;;;;;;;3.95;2.25;;;;;;;17.11;60.52;102003.16;1824026;77;21049;-81
2021/09/02 08:02:30;;;;;;;7.58;2.15;;;;;;;17.12;60.40;102005.38;1824052;77;21060;-81
2021/09/02 08:04:57;;;;;;;7.05;1.90;;;;;;;17.13;60.20;102017.83;1824091;78;21912;-81
2021/09/02 08:07:23;;;;;;;4.35;2.33;;;;;;;17.12;60.08;102020.01;1823936;78;21558;-81
2021/09/02 08:09:51;;;;;;;3.37;2.08;;;;;;;17.12;59.44;102022.26;1824146;78;21029;-81
2021/09/02 08:12:18;;;;;;;3.35;2.15;;;;;;;17.14;58.65;102040.47;1824109;78;21006;-81
2021/09/02 08:14:44;;;;;;;5.55;2.10;;;;;;;17.13;58.57;102034.67;1824176;78;21104;-81
2021/09/02 08:17:11;;;;;;;4.95;1.95;;;;;;;17.16;57.86;102044.05;1824108;77;23011;-81
2021/09/02 08:19:37;;;;;;;4.58;2.20;;;;;;;17.15;58.01;102040.03;1824167;78;21061;-81
2021/09/02 08:22:04;;;;;;;6.55;2.50;;;;;;;17.22;58.12;102036.62;1824288;78;21524;-81
2021/09/02 08:24:32;;;;;;;3.95;2.35;;;;;;;17.28;58.21;102038.05;1824076;78;21527;-81
2021/09/02 08:26:59;;;;;;;3.62;1.90;;;;;;;17.34;58.35;102037.27;1824340;78;21144;-83
2021/09/02 08:29:25;;;;;;;4.58;2.20;;;;;;;17.38;58.37;102040.02;1824418;78;21653;-84
2021/09/02 08:31:52;;;;;;;5.30;2.37;;;;;;;17.45;58.35;102033.91;1824443;78;21481;-84
2021/09/02 08:34:18;;;;;;;5.47;2.20;;;;;;;17.51;58.27;102032.23;1824656;78;21022;-84
2021/09/02 08:36:45;;;;;;;7.22;2.00;;;;;;;17.57;58.43;102025.26;1824376;77;21105;-81
2021/09/02 08:39:12;;;;;;;7.22;2.40;;;;;;;17.58;58.00;102028.36;1824645;77;21038;-84
2021/09/02 08:41:38;;;;;;;4.17;2.40;;;;;;;17.58;58.05;102034.13;1824383;77;21722;-84
2021/09/02 08:44:05;;;;;;;6.40;2.50;;;;;;;17.57;58.14;102031.91;1824157;77;21594;-83
2021/09/02 08:46:32;;;;;;;3.47;2.15;;;;;;;17.61;58.06;102031.09;1824200;78;21117;-84
2021/09/02 08:49:01;;;;;;;5.30;2.27;;;;;;;17.67;58.41;102033.84;1824251;78;21437;-84
2021/09/02 08:51:27;;;;;;;4.65;2.17;;;;;;;17.69;58.30;102034.76;1824210;78;21038;-84
2021/09/02 08:53:54;;;;;;;7.58;2.30;;;;;;;17.71;57.74;102023.25;1824072;78;23111;-81
2021/09/02 08:56:21;;;;;;;5.62;2.22;;;;;;;17.70;58.02;102033.02;1824007;78;21046;-82
2021/09/02 08:58:48;;;;;;;4.12;2.22;;;;;;;17.75;57.91;102042.39;1824086;78;21516;-82
2021/09/02 09:01:14;;;;;;;3.83;1.85;;;;;;;17.80;57.56;102037.60;1824000;77;21003;-82
2021/09/02 09:03:41;;;;;;;3.50;2.00;;;;;;;17.92;57.89;102034.70;1824115;78;21136;-82
2021/09/02 09:06:08;;;;;;;4.25;2.00;;;;;;;18.03;57.20;102044.64;1747541;78;21694;-82
2021/09/02 09:08:38;;;;;;;4.67;2.20;;;;;;;18.09;56.53;102033.17;1796411;78;21010;-82
2021/09/02 09:11:28;;;;;;;4.30;2.20;;;;;;;18.03;56.33;102044.64;1824232;78;21054;-82
2021/09/02 09:14:11;;;;;;;4.35;2.10;;;;;;;17.93;56.04;102054.70;1823939;78;21451;-82
2021/09/02 09:16:53;;;;;;;6.87;3.37;;;;;;;17.84;55.63;102054.53;1824305;78;21614;-81
2021/09/02 09:19:52;;;;;;;5.28;2.58;;;;;;;17.83;54.89;102046.98;1823250;78;21739;-81
2021/09/02 09:22:23;;;;;;;6.90;5.03;;;;;;;17.88;55.09;102055.06;1824251;78;20991;-82
2021/09/02 09:24:56;;;;;;;5.25;3.30;;;;;;;17.98;54.66;102071.67;1824478;78;21101;-84
2021/09/02 09:27:45;;;;;;;5.80;2.65;;;;;;;18.20;55.26;102039.55;1824499;78;21097;-83
2021/09/02 09:30:16;;;;;;;3.33;2.15;;;;;;;18.56;55.31;102043.61;1824299;77;21026;-84
2021/09/02 09:32:59;;;;;;;4.90;2.80;;;;;;;18.85;55.33;102044.42;1824254;78;21817;-83
2021/09/02 09:35:32;;;;;;;7.17;2.80;;;;;;;18.88;55.29;102065.78;1824547;78;21050;-84
2021/09/02 09:38:18;;;;;;;4.00;2.50;;;;;;;18.81;55.95;102064.84;1824680;78;21065;-84
2021/09/02 09:40:52;;;;;;;4.53;2.60;;;;;;;18.82;56.23;102061.72;1824139;78;21525;-83
2021/09/02 09:43:23;;;;;;;4.97;3.17;;;;;;;18.69;56.25;102067.75;1824305;78;26368;-84
2021/09/02 09:45:54;;;;;;;6.53;3.22;;;;;;;18.67;56.34;102065.50;1824310;78;21750;-84
2021/09/02 09:48:26;;;;;;;5.35;2.87;;;;;;;18.64;56.27;102067.26;1824187;78;21038;-84
2021/09/02 09:51:18;;;;;;;7.58;2.60;;;;;;;18.46;55.53;102075.90;1824315;77;21035;-84
2021/09/02 09:53:52;;;;;;;6.87;2.77;;;;;;;18.39;55.60;102072.72;1823944;78;21583;-83
2021/09/02 09:56:23;;;;;;;4.45;2.65;;;;;;;18.38;55.58;102074.02;1824241;78;21058;-83
2021/09/02 09:58:52;;;;;;;7.30;2.62;;;;;;;18.20;55.44;102080.86;1824394;77;21969;-83
2021/09/02 10:01:18;;;;;;;4.15;2.80;;;;;;;18.08;55.43;102073.14;1824352;78;21048;-83
2021/09/02 10:03:50;;;;;;;3.42;2.37;;;;;;;17.99;55.84;102065.45;1824667;78;21221;-83
2021/09/02 10:06:14;;;;;;;4.60;2.45;;;;;;;18.06;55.81;102074.00;1823828;78;21002;-83
2021/09/02 10:08:43;;;;;;;7.97;2.67;;;;;;;18.08;55.56;102083.36;1824508;78;21062;-83
2021/09/02 10:11:12;;;;;;;4.28;2.35;;;;;;;18.15;55.60;102064.34;1824274;78;21800;-83
2021/09/02 10:13:38;;;;;;;3.98;2.30;;;;;;;18.34;55.21;102071.75;1824227;78;21022;-83
2021/09/02 10:16:05;;;;;;;5.30;2.58;;;;;;;18.51;55.11;102071.98;1824285;78;21047;-84
2021/09/02 10:18:33;;;;;;;6.25;2.70;;;;;;;18.58;54.76;102068.52;1824193;78;21038;-83
2021/09/02 10:21:06;;;;;;;7.50;3.05;;;;;;;18.56;54.51;102074.28;1824240;78;21050;-83
2021/09/02 10:23:33;;;;;;;5.30;2.40;;;;;;;18.53;54.25;102082.67;1824497;78;21668;-83
2021/09/02 10:26:00;;;;;;;9.48;2.60;;;;;;;18.56;53.81;102084.95;1824275;78;21530;-84
2021/09/02 10:28:34;;;;;;;4.53;2.37;;;;;;;18.46;53.70;102070.56;1824086;77;21026;-84
2021/09/02 10:31:07;;;;;;;6.40;2.62;;;;;;;18.38;53.32;102088.23;1824158;77;21049;-84
2021/09/02 10:33:46;;;;;;;5.70;2.47;;;;;;;18.35;53.65;102076.19;1796619;78;21073;-84
2021/09/02 10:36:21;;;;;;;5.37;2.37;;;;;;;18.42;53.62;102068.74;1824329;78;21759;-84
2021/09/02 10:38:56;;;;;;;7.33;2.33;;;;;;;18.46;53.19;102066.56;1824285;78;21022;-83
2021/09/02 10:41:40;;;;;;;3.58;2.08;;;;;;;18.51;53.51;102080.42;1823949;78;21045;-84
2021/09/02 10:44:09;;;;;;;6.60;2.10;;;;;;;18.73;53.95;102085.16;1824478;78;21050;-84
2021/09/02 10:46:46;;;;;;;5.67;2.65;;;;;;;18.90;53.53;102084.48;1824371;78;21080;-84
2021/09/02 10:49:36;;;;;;;4.58;2.25;;;;;;;18.97;53.62;102079.23;1824017;78;21741;-82
2021/09/02 10:52:29;;;;;;;6.70;2.50;;;;;;;18.80;53.09;102072.78;1820449;77;21022;-81
2021/09/02 10:55:00;;;;;;;4.80;2.60;;;;;;;18.46;53.43;102081.23;1813330;77;21038;-81
2021/09/02 10:57:32;;;;;;;5.12;3.67;;;;;;;18.23;52.59;102078.25;1784156;79;21359;-81
2021/09/02 10:59:59;;;;;;;3.90;2.33;;;;;;;18.19;50.97;102080.86;1812145;77;21038;-81
2021/09/02 11:02:31;;;;;;;5.40;3.87;;;;;;;18.26;50.51;102073.39;1814045;79;21728;-84
2021/09/02 11:05:00;;;;;;;5.78;4.67;;;;;;;18.34;49.92;102081.08;1814036;79;21030;-83
2021/09/02 11:07:48;;;;;;;4.50;2.33;;;;;;;18.36;50.05;102086.44;1813835;79;21094;-83
2021/09/02 11:10:21;;;;;;;6.40;2.20;;;;;;;18.36;49.92;102085.11;1813914;79;21700;-84
2021/09/02 11:13:01;;;;;;;5.05;2.50;;;;;;;18.32;49.81;102076.17;1814208;78;21042;-84
2021/09/02 11:15:28;;;;;;;3.72;2.20;;;;;;;18.31;50.05;102071.69;1806119;78;21736;-84
2021/09/02 11:18:00;;;;;;;6.00;2.52;;;;;;;18.35;49.53;102092.18;1813891;79;21003;-84
2021/09/02 11:20:28;;;;;;;4.20;2.10;;;;;;;18.30;49.53;102084.99;1814002;79;21022;-84
2021/09/02 11:23:12;;;;;;;10.20;4.95;;;;;;;18.25;49.32;102083.16;1813902;79;21253;-83
2021/09/02 11:25:46;;;;;;;4.83;2.35;;;;;;;18.21;49.38;102085.78;1814216;79;21011;-83
2021/09/02 11:28:12;;;;;;;7.40;3.42;;;;;;;18.21;49.75;102088.00;1813667;79;22770;-82
2021/09/02 11:30:39;;;;;;;5.40;2.15;;;;;;;18.23;49.67;102088.02;1813423;79;21089;-81